Home en_GB de_DE fr_FR  

22.08.17 18:35 UTC   Mobilseite
Preise
FAQ

 
TopMeteo
Benutzername Passwort  



Aktuelle Wetterbeobachtungen entlang der Route stehen nur registrierten Benutzern mit gültigem Abonnement zur Verfügung.

Wir zeigen Ihnen eine Auswahl an beliebigen Orten an. Zum Verständnis von METAR-Wettermeldungen siehe Wikipedia.


EDAH Heringsdorf TAF/S

14:50Z
221621Z 2216/2224 CNL
BECMG 2215/2218 29007KT
30007KT 250V350 9999 SCT043 17/10 Q1018
EDDG Münster Osnabrück Flughafen TAF/L

18:20Z
221700Z 2218/2318 05004KT CAVOK
BECMG 2307/2310 12006KT
VRB02KT CAVOK 18/11 Q1020 NOSIG
KBUF Greater Buffalo International TAF/L





18:10Z
221740Z 2218/2318 22017G30KT P6SM VCSH BKN050
TEMPO 2218/2222 VRB20G40KT 2SM -TSRA BKN030CB
FM222300 26016G23KT P6SM VCSH BKN040
FM230100 29011KT P6SM BKN250
FM231400 27013G19KT P6SM SCT250
FM231700 26018KT P6SM BKN040
22018G26KT 3SM R23/5500VP6000FT -RA BR FEW016 SCT029CB BKN070 OVC130 23/22 A2973 RMK AO2 PK WND 21026/1801 RAB1758 CB OHD MOV NE P0004 T02330217
KPIT Greater Pittsburgh International TAF/L






17:51Z
221735Z 2218/2324 22015G25KT P6SM VCTS BKN035CB BKN100
TEMPO 2218/2222 3SM -TSRA BR OVC020CB
FM222200 25010G20KT P6SM -SHRA VCTS BKN035CB BKN090
FM230100 27008KT P6SM BKN035
FM230500 31006KT P6SM SCT045
FM230900 VRB03KT P6SM FEW150
FM231800 30008KT P6SM BKN050
21014KT 9SM -TSRA FEW012 BKN034CB BKN085 BKN250 26/22 A2990 RMK AO2 LTG DSNT ALQDS RAB19 TSB24 SLP122 OCNL LTGCGCC VC SE-SW TS VC SE-SW MOV NE P0000 60000 T02560222 10294 20228 56020
KAXH Houston Southwest 18:15Z AUTO 14003KT 10SM CLR 34/21 A3006 RMK AO2 T03380209
LIMC Milano/Malpensa TAF/L
18:20Z
221700Z 2218/2324 VRB05KT CAVOK
25005KT 230V310 CAVOK 25/11 Q1017 NOSIG
LOWK Klagenfurt-Flughafen TAF/L

18:20Z
221715Z 2218/2318 VRB02KT CAVOK TX27/2314Z TN11/2304Z
BECMG 2307/2309 11007KT 9999 FEW060
05002KT 9999 FEW070 SCT300 18/12 Q1018 NOSIG
FYWB Walvis Bay 18:00Z AUTO 30004KT //// 15/09 Q1015
FBFT Francistown TAF/S
18:00Z
221200Z 2215/2224 21008KT CAVOK
29007KT CAVOK 18/M02 Q1017

Data source: ftp://tgftp.nws.noaa.gov/SL.us008001
"Data is provided as a public service by NOAA's National Weather Service (NWS) and is considered public information and may be distributed or copied."
 
 
Nutzungsbedingungen
Impressum
Wir über uns
Modelllauf: 12 UTC - Vorhersage: So 27.08.17 17:00